Time;durP1;ratioP1;P1;durP2;ratioP2;P2;SDS_P1;SDS_P2;PMS_P1;PMS_P2;Temp;Humidity;BMP_temperature;BMP_pressure;BME280_temperature;BME280_humidity;BME280_pressure;Samples;Min_cycle;Max_cycle;Signal;HPM_P1;HPM_P2
2022/11/16 00:00:57;;;;;;;5.72;4.47;;;12.40;99.90;;;;;;5053968;28;20693;-66
2022/11/16 00:03:22;;;;;;;4.97;4.47;;;12.40;99.90;;;;;;5054169;28;20157;-66
2022/11/16 00:05:48;;;;;;;5.20;4.25;;;12.30;99.90;;;;;;5054510;28;20175;-66
2022/11/16 00:08:14;;;;;;;5.35;4.43;;;12.30;99.90;;;;;;5053757;28;20286;-66
2022/11/16 00:10:39;;;;;;;6.32;4.13;;;12.30;99.90;;;;;;5053952;28;20228;-66
2022/11/16 00:13:05;;;;;;;4.88;4.28;;;12.30;99.90;;;;;;5052640;28;20178;-66
2022/11/16 00:15:31;;;;;;;6.28;4.50;;;12.30;99.90;;;;;;5053677;28;20185;-66
2022/11/16 00:17:56;;;;;;;7.55;4.35;;;12.20;99.90;;;;;;5052328;28;20210;-66
2022/11/16 00:20:22;;;;;;;6.78;4.57;;;12.10;99.90;;;;;;5052237;28;20202;-66
2022/11/16 00:22:48;;;;;;;6.65;4.75;;;12.10;99.90;;;;;;5053409;28;20672;-66
2022/11/16 00:25:13;;;;;;;6.00;4.63;;;12.10;99.90;;;;;;5053538;28;20175;-66
2022/11/16 00:27:39;;;;;;;6.05;4.90;;;12.10;99.90;;;;;;5053365;28;20217;-66
2022/11/16 00:30:06;;;;;;;5.03;4.45;;;12.10;99.90;;;;;;5052108;28;20654;-66
2022/11/16 00:32:32;;;;;;;6.35;4.60;;;12.00;99.90;;;;;;5053700;28;20166;-66
2022/11/16 00:34:58;;;;;;;6.53;4.78;;;12.00;99.90;;;;;;5052786;28;20240;-66
2022/11/16 00:37:23;;;;;;;5.25;4.75;;;11.90;99.90;;;;;;5053468;28;20655;-66
2022/11/16 00:39:49;;;;;;;6.10;5.05;;;11.90;99.90;;;;;;5053381;28;20188;-66
2022/11/16 00:42:15;;;;;;;5.57;4.75;;;11.80;99.90;;;;;;5053448;28;20205;-66
2022/11/16 00:44:40;;;;;;;8.00;4.85;;;11.80;99.90;;;;;;5053415;28;20181;-66
2022/11/16 00:47:06;;;;;;;5.47;4.78;;;11.80;99.90;;;;;;5053256;28;20219;-66
2022/11/16 00:49:32;;;;;;;6.93;5.40;;;11.80;99.90;;;;;;5053229;28;20167;-66
2022/11/16 00:51:58;;;;;;;7.20;5.88;;;11.70;99.90;;;;;;5053054;28;20639;-66
2022/11/16 00:54:23;;;;;;;7.07;5.22;;;11.70;99.90;;;;;;5053548;28;20178;-66
2022/11/16 00:56:49;;;;;;;5.90;5.18;;;11.70;99.90;;;;;;5056858;28;20547;-66
2022/11/16 00:59:15;;;;;;;7.40;5.45;;;11.70;99.90;;;;;;5057353;28;20200;-66
2022/11/16 01:01:40;;;;;;;6.72;5.40;;;11.70;99.90;;;;;;5057036;28;20217;-66
2022/11/16 01:04:06;;;;;;;9.77;5.45;;;11.60;99.90;;;;;;5055963;28;20231;-66
2022/11/16 01:06:32;;;;;;;6.68;5.05;;;11.60;99.90;;;;;;5055805;28;20178;-66
2022/11/16 01:08:58;;;;;;;7.13;5.30;;;11.60;99.90;;;;;;5055763;28;20198;-66
2022/11/16 01:14:09;;;;;;;7.32;5.90;;;11.50;99.90;;;;;;5057372;28;20169;-66
2022/11/16 01:16:35;;;;;;;7.70;5.45;;;11.50;99.90;;;;;;5057279;28;20261;-66
2022/11/16 01:19:01;;;;;;;5.75;5.15;;;11.50;99.90;;;;;;5056980;28;20625;-66
2022/11/16 01:21:27;;;;;;;7.22;4.97;;;11.40;99.90;;;;;;5055441;28;20675;-66
2022/11/16 01:23:54;;;;;;;7.50;5.50;;;11.40;99.90;;;;;;5056834;28;20209;-66
2022/11/16 01:26:20;;;;;;;6.43;5.53;;;11.40;99.90;;;;;;5056851;28;20167;-66
2022/11/16 01:28:46;;;;;;;7.25;5.95;;;11.40;99.90;;;;;;5055501;28;20201;-66
2022/11/16 01:31:11;;;;;;;9.32;5.47;;;11.30;99.90;;;;;;5056153;28;20239;-66
2022/11/16 01:33:37;;;;;;;9.73;6.20;;;11.30;99.90;;;;;;5056871;28;20179;-66
2022/11/16 01:36:16;;;;;;;8.00;6.22;;;11.30;99.90;;;;;;5055336;28;20185;-66
2022/11/16 01:38:45;;;;;;;8.65;6.28;;;11.30;99.90;;;;;;5056502;28;20807;-66
2022/11/16 01:41:14;;;;;;;6.68;5.70;;;11.20;99.90;;;;;;5056833;28;20558;-66
2022/11/16 01:43:57;;;;;;;7.15;6.13;;;11.30;99.90;;;;;;5056522;28;20369;-66
2022/11/16 01:46:24;;;;;;;8.07;6.47;;;11.30;99.90;;;;;;5056484;28;20224;-66
2022/11/16 01:48:56;;;;;;;10.15;5.97;;;11.20;99.90;;;;;;5055063;28;20195;-66
2022/11/16 01:51:23;;;;;;;6.88;5.97;;;11.20;99.90;;;;;;5056646;28;20170;-67
2022/11/16 01:53:49;;;;;;;8.73;6.70;;;11.20;99.90;;;;;;5056875;28;20264;-66
2022/11/16 01:56:15;;;;;;;10.27;6.50;;;11.20;99.90;;;;;;5056623;28;20170;-66
2022/11/16 01:58:41;;;;;;;7.93;6.40;;;11.20;99.90;;;;;;5054917;28;20678;-66
2022/11/16 02:01:07;;;;;;;8.27;6.50;;;11.20;99.90;;;;;;5056259;28;20206;-66
2022/11/16 02:03:36;;;;;;;8.00;6.80;;;11.20;99.90;;;;;;5056674;28;20163;-66
2022/11/16 02:06:07;;;;;;;7.97;6.47;;;11.20;99.90;;;;;;5056204;28;20167;-66
2022/11/16 02:12:18;;;;;;;7.28;6.15;;;11.20;99.90;;;;;;5056401;28;20537;-66
2022/11/16 02:15:04;;;;;;;7.80;6.43;;;11.10;99.90;;;;;;5055973;28;20171;-66
2022/11/16 02:18:02;;;;;;;8.48;6.75;;;11.20;99.90;;;;;;5055155;28;20221;-67
2022/11/16 02:20:49;;;;;;;7.28;5.97;;;11.20;99.90;;;;;;5056307;28;20190;-67
2022/11/16 02:23:42;;;;;;;8.30;6.30;;;11.20;99.90;;;;;;5055797;28;20159;-66
2022/11/16 02:26:20;;;;;;;8.07;6.05;;;11.10;99.90;;;;;;5054516;28;20178;-67
2022/11/16 02:29:05;;;;;;;7.68;6.13;;;11.10;99.90;;;;;;5055606;28;20686;-67
2022/11/16 02:31:36;;;;;;;8.10;5.97;;;11.20;99.90;;;;;;5055973;28;20159;-67
2022/11/16 02:34:05;;;;;;;8.23;6.68;;;11.20;99.90;;;;;;5054411;28;20548;-67
2022/11/16 02:36:33;;;;;;;7.53;6.40;;;11.10;99.90;;;;;;5055488;28;20171;-67
2022/11/16 02:39:10;;;;;;;9.00;6.53;;;11.10;99.90;;;;;;5055527;28;20207;-67
2022/11/16 02:41:39;;;;;;;7.20;6.45;;;11.10;99.90;;;;;;5055069;28;20264;-67
2022/11/16 02:44:14;;;;;;;8.80;6.35;;;11.00;99.90;;;;;;5055876;28;20181;-67
2022/11/16 02:46:44;;;;;;;7.05;6.13;;;11.10;99.90;;;;;;5055845;28;20163;-67
2022/11/16 02:49:15;;;;;;;6.63;5.93;;;11.10;99.90;;;;;;5056050;28;20521;-67
2022/11/16 02:51:41;;;;;;;7.05;5.85;;;11.00;99.90;;;;;;5054046;28;20173;-67
2022/11/16 02:54:07;;;;;;;7.68;5.60;;;10.90;99.90;;;;;;5053912;28;20589;-67
2022/11/16 02:57:11;;;;;;;9.20;6.25;;;10.90;99.90;;;;;;5055176;28;20182;-67
2022/11/16 02:59:50;;;;;;;7.43;6.33;;;10.80;99.90;;;;;;5054013;28;20178;-67
2022/11/16 03:02:34;;;;;;;7.93;6.30;;;10.80;99.90;;;;;;5053746;28;20268;-67
2022/11/16 03:05:41;;;;;;;9.30;6.57;;;10.80;99.90;;;;;;5054979;28;20166;-67
2022/11/16 03:08:35;;;;;;;6.80;6.10;;;10.80;99.90;;;;;;5048830;28;20217;-70
2022/11/16 03:13:51;;;;;;;8.77;6.80;;;10.80;99.90;;;;;;5055401;28;20632;-70
2022/11/16 03:16:23;;;;;;;8.83;6.97;;;10.70;99.90;;;;;;5055210;28;20266;-69
2022/11/16 03:18:52;;;;;;;9.57;6.87;;;10.70;99.90;;;;;;5054984;28;20202;-70
2022/11/16 03:21:44;;;;;;;8.37;6.70;;;10.70;99.90;;;;;;5054691;28;20212;-69
2022/11/16 03:24:10;;;;;;;8.67;7.03;;;10.70;99.90;;;;;;5049646;28;20187;-70
2022/11/16 03:26:49;;;;;;;7.93;6.67;;;10.70;99.90;;;;;;5053823;28;20189;-70
2022/11/16 03:29:26;;;;;;;9.33;7.83;;;10.70;99.90;;;;;;5054674;28;20208;-67
2022/11/16 03:31:57;;;;;;;8.43;6.93;;;10.60;99.90;;;;;;5053437;28;20617;-67
2022/11/16 03:34:29;;;;;;;7.97;6.83;;;10.70;99.90;;;;;;5053276;28;20631;-67
2022/11/16 03:36:55;;;;;;;12.00;7.77;;;10.70;99.90;;;;;;5054296;28;20194;-68
2022/11/16 03:39:29;;;;;;;10.53;7.87;;;10.80;99.90;;;;;;5054473;28;20184;-67
2022/11/16 03:41:57;;;;;;;11.30;7.33;;;10.80;99.90;;;;;;5053107;28;20602;-67
2022/11/16 03:44:22;;;;;;;8.27;6.80;;;10.80;99.90;;;;;;5054253;28;20178;-67
2022/11/16 03:46:48;;;;;;;9.83;7.10;;;10.80;99.90;;;;;;5054584;28;20178;-67
2022/11/16 03:49:14;;;;;;;11.93;7.00;;;10.80;99.90;;;;;;5054134;28;20195;-67
2022/11/16 03:51:40;;;;;;;11.23;7.40;;;10.80;99.90;;;;;;5053893;28;20179;-67
2022/11/16 03:54:06;;;;;;;9.25;7.03;;;10.80;99.90;;;;;;5052730;28;20232;-67
2022/11/16 03:56:32;;;;;;;8.83;6.87;;;10.80;99.90;;;;;;5053914;28;20186;-67
2022/11/16 03:58:57;;;;;;;8.53;6.57;;;10.80;99.90;;;;;;5054603;28;20201;-67
2022/11/16 04:01:23;;;;;;;9.40;7.17;;;10.90;99.90;;;;;;5053678;28;20214;-67
2022/11/16 04:03:49;;;;;;;6.50;5.80;;;10.80;99.90;;;;;;5054090;28;20265;-67
2022/11/16 04:25:40;;;;;;;8.67;6.50;;;10.80;99.90;;;;;;5053692;28;20161;-67
2022/11/16 04:28:12;;;;;;;8.00;5.80;;;10.80;99.90;;;;;;5052184;28;20206;-67
2022/11/16 04:39:04;;;;;;;5.83;5.00;;;10.70;99.90;;;;;;5053263;28;20275;-67
2022/11/16 04:44:18;;;;;;;5.55;4.72;;;10.70;99.90;;;;;;5053814;28;20161;-67
2022/11/16 04:49:29;;;;;;;5.97;5.38;;;10.80;99.90;;;;;;5053823;28;20526;-67
2022/11/16 04:51:55;;;;;;;6.38;4.53;;;10.80;99.90;;;;;;5053110;28;20265;-67
2022/11/16 04:54:21;;;;;;;4.80;4.33;;;10.80;99.90;;;;;;5053156;28;20204;-67
2022/11/16 04:56:46;;;;;;;4.43;4.03;;;10.70;99.90;;;;;;5053332;28;20709;-67
2022/11/16 04:59:12;;;;;;;5.65;4.00;;;10.70;99.90;;;;;;5051689;28;20194;-67
2022/11/16 05:04:22;;;;;;;5.03;4.23;;;10.70;99.90;;;;;;5053356;28;20166;-67
2022/11/16 05:06:48;;;;;;;4.37;3.97;;;10.60;99.90;;;;;;5053167;28;20175;-67
2022/11/16 05:09:14;;;;;;;4.30;3.90;;;10.60;99.90;;;;;;5053046;28;20202;-67
2022/11/16 05:11:40;;;;;;;5.03;4.10;;;10.60;99.90;;;;;;5052995;28;20235;-67
2022/11/16 05:14:07;;;;;;;5.13;4.33;;;10.60;99.90;;;;;;5053006;28;20257;-67
2022/11/16 05:16:33;;;;;;;5.37;4.47;;;10.50;99.90;;;;;;5052932;28;20183;-67
2022/11/16 05:21:43;;;;;;;4.43;4.00;;;10.60;99.90;;;;;;5052852;28;20574;-67
2022/11/16 05:26:53;;;;;;;5.23;4.47;;;10.50;99.90;;;;;;5052881;28;20641;-68
2022/11/16 05:29:19;;;;;;;6.40;4.57;;;10.50;99.90;;;;;;5052864;28;20241;-67
2022/11/16 05:31:44;;;;;;;4.60;4.20;;;10.50;99.90;;;;;;5053350;28;20236;-67
2022/11/16 05:34:10;;;;;;;5.07;4.40;;;10.60;99.90;;;;;;5052745;28;20587;-67
2022/11/16 05:36:36;;;;;;;6.60;4.37;;;10.60;99.90;;;;;;5053311;28;20175;-67
2022/11/16 05:39:02;;;;;;;5.00;4.33;;;10.60;99.90;;;;;;5052709;28;20211;-67
2022/11/16 05:41:28;;;;;;;4.90;4.00;;;10.70;99.90;;;;;;5052640;28;20227;-67
2022/11/16 05:43:54;;;;;;;8.23;4.60;;;10.70;99.90;;;;;;5056129;28;20198;-68
2022/11/16 05:46:21;;;;;;;5.83;4.47;;;10.70;99.90;;;;;;5057068;28;20630;-67
2022/11/16 05:48:46;;;;;;;5.57;4.37;;;10.70;99.90;;;;;;5056326;28;20682;-67
2022/11/16 05:51:12;;;;;;;4.80;4.28;;;10.60;99.90;;;;;;5055143;28;20179;-67
2022/11/16 05:53:38;;;;;;;4.70;4.10;;;10.60;99.90;;;;;;5056388;28;20179;-67
2022/11/16 05:56:04;;;;;;;7.43;4.77;;;10.50;99.90;;;;;;5056440;28;20178;-67
2022/11/16 05:58:30;;;;;;;4.87;4.37;;;10.50;99.90;;;;;;5056248;28;20226;-67
2022/11/16 06:00:57;;;;;;;4.63;4.20;;;10.50;99.90;;;;;;5056468;28;20292;-67
2022/11/16 06:03:22;;;;;;;5.30;3.93;;;10.50;99.90;;;;;;5056177;28;20300;-67
2022/11/16 06:05:52;;;;;;;5.03;4.27;;;10.40;99.90;;;;;;5054883;28;20552;-69
2022/11/16 06:08:17;;;;;;;4.83;4.17;;;10.40;99.90;;;;;;5056002;28;20277;-69
2022/11/16 06:10:43;;;;;;;6.17;4.47;;;10.40;99.90;;;;;;5054949;28;20312;-69
2022/11/16 06:13:09;;;;;;;5.20;4.27;;;10.30;99.90;;;;;;5056592;28;20639;-68
2022/11/16 06:15:39;;;;;;;4.50;4.00;;;10.40;99.90;;;;;;5056328;28;20178;-69
2022/11/16 06:18:05;;;;;;;5.10;3.80;;;10.40;99.90;;;;;;5056509;28;20199;-69
2022/11/16 06:20:31;;;;;;;4.10;3.70;;;10.30;99.90;;;;;;5056726;28;20558;-69
2022/11/16 06:22:57;;;;;;;4.17;3.77;;;10.30;99.90;;;;;;5056342;28;20170;-69
2022/11/16 06:25:23;;;;;;;4.53;3.33;;;10.30;99.90;;;;;;5057010;28;20181;-69
2022/11/16 06:27:49;;;;;;;4.00;3.60;;;10.30;99.90;;;;;;5056274;28;20217;-68
2022/11/16 06:30:15;;;;;;;3.73;3.43;;;10.30;99.90;;;;;;5056289;28;20697;-69
2022/11/16 06:32:41;;;;;;;3.53;3.23;;;10.30;99.90;;;;;;5056542;28;20181;-69
2022/11/16 06:35:07;;;;;;;3.80;3.50;;;10.20;99.90;;;;;;5056282;28;20170;-69
2022/11/16 06:37:33;;;;;;;3.77;3.47;;;10.20;99.90;;;;;;5055734;28;20198;-69
2022/11/16 06:39:59;;;;;;;4.00;3.60;;;10.20;99.90;;;;;;5055736;28;20631;-69
2022/11/16 06:42:24;;;;;;;4.20;3.53;;;10.20;99.90;;;;;;5055828;28;20278;-69
2022/11/16 06:44:50;;;;;;;3.87;3.43;;;10.20;99.90;;;;;;5055445;28;20272;-67
2022/11/16 06:47:16;;;;;;;3.70;3.40;;;10.20;99.90;;;;;;5055226;28;20608;-67
2022/11/16 06:49:42;;;;;;;4.20;3.53;;;10.20;99.90;;;;;;5055561;28;20186;-67
2022/11/16 06:52:07;;;;;;;3.73;3.43;;;10.20;99.90;;;;;;5055344;28;20260;-67
2022/11/16 06:54:33;;;;;;;4.00;3.67;;;10.20;99.90;;;;;;5054832;28;20183;-67
2022/11/16 06:56:59;;;;;;;3.27;3.07;;;10.20;99.90;;;;;;5055877;28;20171;-67
2022/11/16 06:59:24;;;;;;;3.60;3.30;;;10.10;99.90;;;;;;5055605;28;20643;-67
2022/11/16 07:01:50;;;;;;;3.70;3.37;;;10.10;99.90;;;;;;5054790;28;20221;-67
2022/11/16 07:04:16;;;;;;;5.63;3.60;;;10.10;99.90;;;;;;5055012;28;20167;-67
2022/11/16 07:06:42;;;;;;;4.87;3.67;;;10.10;99.90;;;;;;5054975;28;20539;-67
2022/11/16 07:09:08;;;;;;;4.00;3.67;;;10.10;99.90;;;;;;5054754;28;20565;-67
2022/11/16 07:11:34;;;;;;;4.07;3.40;;;10.10;99.90;;;;;;5054899;28;20280;-67
2022/11/16 07:14:01;;;;;;;3.67;3.27;;;10.10;99.90;;;;;;5055062;28;20261;-67
2022/11/16 07:16:27;;;;;;;6.83;3.37;;;10.00;99.90;;;;;;5055188;28;20178;-70
2022/11/16 07:18:55;;;;;;;4.20;3.80;;;10.00;99.90;;;;;;5053448;28;20205;-68
2022/11/16 07:21:21;;;;;;;5.13;3.90;;;10.00;99.90;;;;;;5054736;28;20197;-67
2022/11/16 07:23:46;;;;;;;3.87;3.57;;;10.00;99.90;;;;;;5054567;28;20619;-67
2022/11/16 07:26:12;;;;;;;4.73;3.60;;;10.00;99.90;;;;;;5054591;28;20632;-66
2022/11/16 07:28:38;;;;;;;5.90;4.00;;;10.10;99.90;;;;;;5053164;28;20198;-68
2022/11/16 07:31:06;;;;;;;4.37;3.87;;;10.10;99.90;;;;;;5054521;28;20301;-67
2022/11/16 07:33:33;;;;;;;7.17;4.57;;;10.10;99.90;;;;;;5054341;28;20515;-67
2022/11/16 07:36:10;;;;;;;8.03;5.00;;;10.10;99.90;;;;;;5054680;28;20530;-69
2022/11/16 07:38:37;;;;;;;8.73;5.10;;;10.00;99.90;;;;;;5054300;28;20273;-69
2022/11/16 07:41:08;;;;;;;8.67;5.57;;;10.10;99.90;;;;;;5052992;28;20209;-69
2022/11/16 07:43:34;;;;;;;11.40;5.40;;;10.10;99.90;;;;;;5052978;28;20257;-69
2022/11/16 07:46:04;;;;;;;8.47;5.23;;;10.00;99.90;;;;;;5054330;28;20253;-70
2022/11/16 07:48:31;;;;;;;11.13;5.77;;;10.00;99.90;;;;;;5054235;28;20201;-70
2022/11/16 07:51:06;;;;;;;8.43;4.90;;;10.00;99.90;;;;;;5054160;28;20175;-69
2022/11/16 07:53:32;;;;;;;10.67;5.50;;;10.00;99.90;;;;;;5054114;28;20216;-69
2022/11/16 07:55:58;;;;;;;11.60;5.80;;;9.90;99.90;;;;;;5053994;28;20651;-69
2022/11/16 07:58:26;;;;;;;11.40;5.67;;;9.90;99.90;;;;;;5054073;28;20202;-70
2022/11/16 08:00:52;;;;;;;6.67;5.00;;;9.90;99.90;;;;;;5053780;28;20210;-70
2022/11/16 08:03:17;;;;;;;6.30;5.20;;;9.80;99.90;;;;;;5054149;28;20188;-69
2022/11/16 08:05:43;;;;;;;13.97;6.30;;;9.80;99.90;;;;;;5053160;28;20181;-70
2022/11/16 08:08:10;;;;;;;7.57;5.33;;;9.90;99.90;;;;;;5052353;28;20574;-70
2022/11/16 08:10:35;;;;;;;8.77;5.63;;;9.90;99.90;;;;;;5052513;28;20188;-70
2022/11/16 08:13:01;;;;;;;9.30;5.20;;;9.90;99.90;;;;;;5053745;28;20175;-70
2022/11/16 08:15:27;;;;;;;10.93;5.60;;;9.80;99.90;;;;;;5052513;28;20200;-70
2022/11/16 08:17:53;;;;;;;10.93;5.43;;;9.90;99.90;;;;;;5053578;28;20675;-70
2022/11/16 08:20:19;;;;;;;11.03;6.47;;;9.90;99.90;;;;;;5053552;28;20194;-70
2022/11/16 08:22:45;;;;;;;9.93;5.43;;;9.90;99.90;;;;;;5053717;28;20546;-70
2022/11/16 08:25:11;;;;;;;9.50;5.73;;;9.90;99.90;;;;;;5054367;28;20198;-70
2022/11/16 08:27:36;;;;;;;8.53;5.63;;;10.00;99.90;;;;;;5053425;28;20221;-70
2022/11/16 08:30:08;;;;;;;9.90;5.40;;;9.90;99.90;;;;;;5052258;28;20178;-70
2022/11/16 08:32:34;;;;;;;9.87;5.87;;;9.90;99.90;;;;;;5053519;28;20186;-70
2022/11/16 08:35:00;;;;;;;11.93;6.27;;;9.90;99.90;;;;;;5052226;28;20187;-70
2022/11/16 08:37:26;;;;;;;11.63;6.23;;;9.90;99.90;;;;;;5053900;28;20191;-70
2022/11/16 08:39:53;;;;;;;9.77;5.53;;;10.00;99.90;;;;;;5053641;28;20178;-70
2022/11/16 08:42:19;;;;;;;13.73;6.90;;;10.00;99.90;;;;;;5053292;28;20194;-70
2022/11/16 08:44:45;;;;;;;13.17;6.30;;;9.90;99.90;;;;;;5053717;28;20518;-70
2022/11/16 08:47:11;;;;;;;10.47;5.57;;;9.90;99.90;;;;;;5053678;28;20174;-70
2022/11/16 08:49:37;;;;;;;10.57;5.50;;;9.90;99.90;;;;;;5053615;28;20171;-70
2022/11/16 08:52:03;;;;;;;8.00;5.57;;;9.90;99.90;;;;;;5053563;28;20178;-70
2022/11/16 08:54:29;;;;;;;9.73;5.33;;;9.90;99.90;;;;;;5053196;28;20639;-70
2022/11/16 08:56:55;;;;;;;12.23;5.80;;;10.00;99.90;;;;;;5052977;28;20202;-70
2022/11/16 08:59:21;;;;;;;6.97;5.37;;;10.00;99.90;;;;;;5053500;28;20182;-70
2022/11/16 09:01:48;;;;;;;9.07;5.53;;;10.10;99.90;;;;;;5052918;28;20202;-70
2022/11/16 09:04:15;;;;;;;11.87;5.70;;;10.00;99.90;;;;;;5053155;28;20179;-70
2022/11/16 09:06:41;;;;;;;8.27;5.57;;;10.00;99.90;;;;;;5053139;28;20667;-69
2022/11/16 09:09:06;;;;;;;9.47;5.30;;;10.10;99.90;;;;;;5052842;28;20240;-70
2022/11/16 09:11:32;;;;;;;9.23;5.60;;;10.10;99.90;;;;;;5053065;28;20202;-70
2022/11/16 09:13:58;;;;;;;12.80;5.57;;;10.20;99.90;;;;;;5053022;28;20585;-70
2022/11/16 09:16:25;;;;;;;14.20;5.30;;;10.10;99.90;;;;;;5052967;28;20186;-70
2022/11/16 09:18:51;;;;;;;6.37;4.23;;;10.10;99.90;;;;;;5057048;28;20225;-69
2022/11/16 09:21:25;;;;;;;14.73;5.13;;;10.20;99.90;;;;;;5057164;28;20225;-69
2022/11/16 09:23:52;;;;;;;8.53;4.53;;;10.30;99.90;;;;;;5057007;28;20166;-69
2022/11/16 09:26:20;;;;;;;11.07;4.90;;;10.30;99.90;;;;;;5057526;28;20197;-70
2022/11/16 09:28:46;;;;;;;9.67;4.37;;;10.40;99.90;;;;;;5056802;28;20293;-70
2022/11/16 09:31:12;;;;;;;9.47;4.03;;;10.50;99.90;;;;;;5056859;28;20250;-70
2022/11/16 09:33:38;;;;;;;6.10;4.00;;;10.50;99.90;;;;;;5056730;28;20170;-70
2022/11/16 09:36:07;;;;;;;9.10;4.07;;;10.50;99.90;;;;;;5055449;28;20178;-70
2022/11/16 09:38:44;;;;;;;6.73;3.80;;;10.50;99.90;;;;;;5056517;28;20217;-70
2022/11/16 09:41:15;;;;;;;11.30;3.90;;;10.60;99.90;;;;;;5056583;28;20186;-70
2022/11/16 09:44:03;;;;;;;4.60;3.30;;;10.60;99.90;;;;;;5056521;28;20177;-70
2022/11/16 09:46:37;;;;;;;6.33;3.63;;;10.70;99.90;;;;;;5055229;28;20178;-70
2022/11/16 09:49:14;;;;;;;8.73;3.90;;;10.80;99.90;;;;;;5056411;28;20194;-70
2022/11/16 09:51:43;;;;;;;5.47;3.40;;;10.80;99.90;;;;;;5056718;28;20611;-70
2022/11/16 09:54:17;;;;;;;4.37;3.33;;;10.80;99.90;;;;;;5056425;28;20286;-70
2022/11/16 09:56:46;;;;;;;5.07;3.30;;;10.90;99.90;;;;;;5056697;28;20241;-70
2022/11/16 09:59:20;;;;;;;5.47;3.50;;;11.00;99.90;;;;;;5055248;28;20201;-70
2022/11/16 10:01:57;;;;;;;6.03;3.43;;;11.00;99.90;;;;;;5056204;28;20351;-70
2022/11/16 10:04:35;;;;;;;7.27;3.50;;;11.00;99.90;;;;;;5056545;28;20261;-70
2022/11/16 10:07:32;;;;;;;9.60;3.70;;;11.00;99.90;;;;;;5056181;28;20161;-70
2022/11/16 10:09:58;;;;;;;5.90;3.80;;;11.20;99.90;;;;;;5055003;28;20221;-70
2022/11/16 10:12:33;;;;;;;6.77;3.33;;;11.20;99.90;;;;;;5056851;28;20178;-70
2022/11/16 10:15:17;;;;;;;4.47;2.90;;;11.30;99.90;;;;;;5054958;28;20170;-71
2022/11/16 10:17:46;;;;;;;6.13;3.50;;;11.20;99.90;;;;;;5055059;28;20202;-69
2022/11/16 10:20:38;;;;;;;5.30;3.50;;;11.10;99.90;;;;;;5056047;28;20240;-70
2022/11/16 10:23:10;;;;;;;9.03;3.30;;;11.00;99.90;;;;;;5054781;28;20277;-70
2022/11/16 10:25:44;;;;;;;5.83;3.27;;;11.10;99.90;;;;;;5054823;28;20292;-70
2022/11/16 10:28:10;;;;;;;6.10;3.43;;;11.10;99.90;;;;;;5055596;28;20274;-70
2022/11/16 10:31:16;;;;;;;3.40;3.00;;;11.20;99.90;;;;;;5054675;28;20209;-70
2022/11/16 10:33:45;;;;;;;7.70;3.47;;;11.30;99.90;;;;;;5055899;28;20162;-70
2022/11/16 10:36:15;;;;;;;8.57;3.30;;;11.20;99.90;;;;;;5054551;28;20175;-70
2022/11/16 10:38:43;;;;;;;9.37;3.53;;;11.20;99.90;;;;;;5055814;28;20259;-70
2022/11/16 10:41:35;;;;;;;8.67;3.57;;;11.20;99.90;;;;;;5056261;28;20205;-70
2022/11/16 10:44:01;;;;;;;8.80;3.20;;;11.20;99.90;;;;;;5055866;28;20159;-70
2022/11/16 10:46:39;;;;;;;7.20;3.47;;;11.10;99.90;;;;;;5055777;28;20535;-71
2022/11/16 10:49:20;;;;;;;11.17;3.47;;;11.10;99.90;;;;;;5055376;28;20187;-67
2022/11/16 10:51:46;;;;;;;6.00;3.40;;;11.20;99.90;;;;;;5055644;28;20165;-67
2022/11/16 10:54:13;;;;;;;12.33;3.50;;;11.40;99.90;;;;;;5055123;28;20254;-67
2022/11/16 10:56:44;;;;;;;7.37;3.20;;;11.70;99.90;;;;;;5055295;28;20181;-67
2022/11/16 10:59:12;;;;;;;8.10;3.73;;;11.90;99.90;;;;;;5053919;28;20202;-67
2022/11/16 11:01:42;;;;;;;5.43;2.90;;;12.10;99.90;;;;;;5076898;28;20208;-67
2022/11/16 11:04:24;;;;;;;4.38;3.10;;;12.30;99.90;;;;;;5078977;28;20189;-67
2022/11/16 11:07:00;;;;;;;8.60;3.20;;;12.40;99.90;;;;;;5127399;27;20552;-67
2022/11/16 11:09:33;;;;;;;3.67;2.80;;;12.50;99.90;;;;;;5086856;28;20197;-68
2022/11/16 11:14:58;;;;;;;8.33;3.13;;;12.70;99.90;;;;;;5074988;28;20537;-71
2022/11/16 11:17:24;;;;;;;7.07;3.07;;;12.70;99.90;;;;;;5056899;28;20209;-71
2022/11/16 11:20:21;;;;;;;4.38;2.70;;;12.80;99.90;;;;;;5075176;28;20166;-72
2022/11/16 11:22:59;;;;;;;8.43;3.13;;;12.80;99.90;;;;;;5056564;28;20224;-72
2022/11/16 11:25:32;;;;;;;9.40;3.28;;;13.10;99.90;;;;;;5075164;28;20260;-72
2022/11/16 11:28:30;;;;;;;6.20;2.90;;;13.20;99.90;;;;;;5056774;28;20205;-72
2022/11/16 11:31:02;;;;;;;5.43;3.13;;;13.20;99.90;;;;;;5075097;28;20203;-72
2022/11/16 11:33:31;;;;;;;7.78;3.15;;;13.30;99.90;;;;;;5074663;28;20658;-72
2022/11/16 11:36:04;;;;;;;4.55;2.80;;;13.40;99.90;;;;;;5074678;28;20174;-72
2022/11/16 11:38:31;;;;;;;5.50;2.70;;;13.30;99.90;;;;;;5074411;28;20199;-72
2022/11/16 11:40:59;;;;;;;7.60;3.53;;;13.40;99.90;;;;;;5073750;28;20546;-72
2022/11/16 11:43:26;;;;;;;7.00;2.80;;;13.40;99.90;;;;;;5056574;28;20208;-72
2022/11/16 11:46:08;;;;;;;7.53;2.72;;;13.50;99.90;;;;;;5074889;28;20169;-72
2022/11/16 11:48:46;;;;;;;5.05;2.80;;;13.40;99.90;;;;;;5056457;28;20201;-73
2022/11/16 11:51:26;;;;;;;3.40;2.83;;;13.60;99.90;;;;;;5074385;28;20162;-72
2022/11/16 11:53:57;;;;;;;8.35;3.00;;;13.70;99.90;;;;;;5056204;28;20182;-73
2022/11/16 11:56:25;;;;;;;6.97;2.80;;;13.50;99.90;;;;;;5074262;28;20169;-73
2022/11/16 11:58:51;;;;;;;4.90;2.85;;;13.60;99.90;;;;;;5074210;28;20198;-72
2022/11/16 12:01:32;;;;;;;5.93;3.10;;;13.50;99.90;;;;;;5074383;28;20239;-73
2022/11/16 12:04:07;;;;;;;7.03;3.15;;;13.40;99.90;;;;;;5056250;28;20162;-73
2022/11/16 12:06:36;;;;;;;9.90;3.05;;;13.40;99.90;;;;;;5074035;28;20175;-72
2022/11/16 12:09:34;;;;;;;7.05;2.92;;;13.50;99.90;;;;;;5074061;28;20229;-73
2022/11/16 12:12:12;;;;;;;4.18;2.97;;;13.60;99.90;;;;;;5120168;27;20192;-73
2022/11/16 12:14:52;;;;;;;9.23;4.05;;;13.70;99.90;;;;;;5115134;28;20684;-73
2022/11/16 12:17:55;;;;;;;4.93;2.88;;;13.70;99.90;;;;;;5114755;28;20537;-73
2022/11/16 12:20:56;;;;;;;5.75;3.13;;;13.90;99.90;;;;;;5114686;28;20168;-72
2022/11/16 12:23:40;;;;;;;4.40;2.92;;;13.80;99.90;;;;;;5113232;28;20177;-73
2022/11/16 12:26:14;;;;;;;8.77;3.00;;;13.60;99.90;;;;;;5114342;28;20237;-73
2022/11/16 12:28:58;;;;;;;5.63;3.33;;;13.20;99.90;;;;;;5113038;28;20291;-72
2022/11/16 12:31:42;;;;;;;7.45;3.10;;;13.10;99.90;;;;;;5114325;28;20199;-71
2022/11/16 12:34:22;;;;;;;8.20;3.00;;;13.30;99.90;;;;;;5114125;28;20165;-71
2022/11/16 12:37:23;;;;;;;7.55;3.10;;;13.60;99.90;;;;;;5114102;28;20164;-72
2022/11/16 12:40:09;;;;;;;7.40;2.60;;;13.80;99.90;;;;;;5080529;28;20201;-72
2022/11/16 12:42:49;;;;;;;4.68;2.70;;;13.80;99.90;;;;;;5093808;28;20354;-72
2022/11/16 12:45:34;;;;;;;6.60;2.80;;;13.80;99.90;;;;;;5093634;28;20165;-71
2022/11/16 12:48:25;;;;;;;8.70;2.90;;;13.90;99.90;;;;;;5093542;28;20193;-71
2022/11/16 12:51:14;;;;;;;5.07;2.75;;;14.00;99.90;;;;;;5082649;28;20200;-72
2022/11/16 12:54:03;;;;;;;7.30;2.95;;;14.10;99.90;;;;;;5092282;28;20655;-72
2022/11/16 12:56:51;;;;;;;5.65;2.83;;;13.90;99.90;;;;;;5094090;28;20171;-72
2022/11/16 12:59:49;;;;;;;5.43;2.65;;;13.90;99.90;;;;;;5092280;28;20232;-71
2022/11/16 13:02:36;;;;;;;3.63;2.55;;;13.80;99.90;;;;;;5094673;28;20556;-74
2022/11/16 13:05:13;;;;;;;6.38;2.92;;;13.90;99.90;;;;;;5092233;28;20645;-71
2022/11/16 13:07:45;;;;;;;7.53;2.80;;;13.90;99.90;;;;;;5094926;28;20220;-71
2022/11/16 13:10:34;;;;;;;8.45;3.22;;;13.80;99.90;;;;;;5113961;28;20250;-72
2022/11/16 13:13:09;;;;;;;5.13;2.60;;;13.90;99.90;;;;;;5113885;28;20264;-72
2022/11/16 13:15:38;;;;;;;6.75;2.90;;;13.90;99.90;;;;;;5113942;28;20163;-73
2022/11/16 13:18:10;;;;;;;5.68;2.60;;;14.00;99.90;;;;;;5113816;28;20195;-72
2022/11/16 13:21:02;;;;;;;7.35;2.60;;;13.90;99.90;;;;;;5113861;28;20236;-72
2022/11/16 13:23:31;;;;;;;4.45;2.60;;;13.90;99.90;;;;;;5113405;28;20149;-72
2022/11/16 13:26:17;;;;;;;6.78;3.25;;;13.80;99.90;;;;;;5095295;28;20177;-72
2022/11/16 13:28:50;;;;;;;7.53;2.70;;;13.70;99.90;;;;;;5113122;28;20204;-72
2022/11/16 13:31:40;;;;;;;5.10;3.17;;;13.60;99.90;;;;;;5095450;28;20168;-72
2022/11/16 13:34:21;;;;;;;5.40;2.97;;;13.60;99.90;;;;;;5113951;28;20558;-72
2022/11/16 13:36:47;;;;;;;4.40;2.63;;;13.50;99.90;;;;;;5095200;28;20221;-72
2022/11/16 13:39:39;;;;;;;6.15;2.63;;;13.50;99.90;;;;;;5095060;28;20212;-72
2022/11/16 13:42:11;;;;;;;4.28;2.50;;;13.50;99.90;;;;;;5113241;28;20204;-72
2022/11/16 13:44:37;;;;;;;6.80;2.50;;;13.50;99.90;;;;;;5113959;28;20171;-72
2022/11/16 13:47:16;;;;;;;8.27;3.35;;;13.50;99.90;;;;;;5095099;28;20169;-72
2022/11/16 13:50:00;;;;;;;6.72;2.78;;;13.40;99.90;;;;;;5095303;28;20169;-72
2022/11/16 13:52:49;;;;;;;4.13;2.58;;;13.50;99.90;;;;;;5113514;28;20237;-72
2022/11/16 13:55:31;;;;;;;5.53;2.90;;;13.40;99.90;;;;;;5095238;28;20173;-72
2022/11/16 13:57:59;;;;;;;6.72;2.90;;;13.40;99.90;;;;;;5095178;28;20204;-72
2022/11/16 14:00:41;;;;;;;3.78;2.80;;;13.40;99.90;;;;;;5113431;28;20176;-72